createdAt,value
2022-12-08T00:02:11.477Z,9.90
2022-12-08T00:07:31.948Z,10.05
2022-12-08T00:12:33.384Z,9.13
2022-12-08T00:17:34.849Z,9.57
2022-12-08T00:22:36.265Z,11.13
2022-12-08T00:27:37.719Z,9.55
2022-12-08T00:32:39.152Z,10.25
2022-12-08T00:37:40.644Z,10.48
2022-12-08T00:42:42.141Z,10.55
2022-12-08T00:47:43.621Z,9.95
2022-12-08T00:52:45.082Z,10.95
2022-12-08T00:57:46.519Z,11.95
2022-12-08T01:02:48.042Z,9.98
2022-12-08T01:07:49.622Z,11.18
2022-12-08T01:12:51.143Z,10.57
2022-12-08T01:17:52.566Z,10.05
2022-12-08T01:22:54.034Z,10.25
2022-12-08T01:27:55.498Z,10.43
2022-12-08T01:32:57.473Z,9.15
2022-12-08T01:37:58.923Z,8.93
2022-12-08T01:43:00.374Z,8.27
2022-12-08T01:48:09.084Z,8.43
2022-12-08T01:53:23.332Z,8.82
2022-12-08T01:58:36.178Z,8.55
2022-12-08T02:03:50.026Z,8.40
2022-12-08T02:08:52.159Z,9.38
2022-12-08T02:13:54.804Z,8.45
2022-12-08T02:19:34.505Z,8.65
2022-12-08T02:24:47.248Z,8.30
2022-12-08T02:30:10.327Z,8.00
2022-12-08T02:35:19.130Z,7.20
2022-12-08T02:40:59.116Z,8.27
2022-12-08T02:46:09.285Z,7.18
2022-12-08T02:51:10.769Z,8.02
2022-12-08T02:56:43.662Z,7.88
2022-12-08T03:02:08.757Z,8.27
2022-12-08T03:07:21.122Z,7.95
2022-12-08T03:12:56.234Z,7.25
2022-12-08T03:17:59.477Z,6.97
2022-12-08T03:23:05.545Z,5.45
2022-12-08T03:28:07.265Z,6.32
2022-12-08T03:33:33.002Z,7.65
2022-12-08T03:38:43.689Z,7.97
2022-12-08T03:43:49.158Z,7.78
2022-12-08T03:48:51.443Z,7.07
2022-12-08T03:53:52.973Z,7.00
2022-12-08T03:58:55.397Z,7.35
2022-12-08T04:03:56.854Z,7.47
2022-12-08T04:08:58.352Z,7.88
2022-12-08T04:13:59.796Z,7.72
2022-12-08T04:19:01.852Z,5.50
2022-12-08T04:24:03.521Z,6.70
2022-12-08T04:29:06.270Z,6.50
2022-12-08T04:34:08.023Z,7.85
2022-12-08T04:39:09.451Z,7.95
2022-12-08T04:44:10.868Z,5.93
2022-12-08T04:49:12.344Z,7.35
2022-12-08T04:54:13.892Z,8.52
2022-12-08T04:59:15.386Z,9.60
2022-12-08T05:04:16.839Z,10.90
2022-12-08T05:09:18.432Z,7.75
2022-12-08T05:14:20.059Z,9.27
2022-12-08T05:19:21.614Z,11.73
2022-12-08T05:24:23.185Z,10.60
2022-12-08T05:29:24.978Z,10.77
2022-12-08T05:34:26.511Z,11.70
2022-12-08T05:39:28.086Z,13.18
2022-12-08T05:44:29.620Z,10.57
2022-12-08T05:49:31.148Z,12.07
2022-12-08T05:54:32.680Z,8.50
2022-12-08T05:59:34.105Z,10.90
2022-12-08T06:04:36.068Z,10.95
2022-12-08T06:09:37.568Z,9.40
2022-12-08T06:14:39.752Z,13.65
2022-12-08T06:19:41.217Z,13.27
2022-12-08T06:24:42.670Z,10.52
2022-12-08T06:29:44.100Z,14.90
2022-12-08T06:34:45.560Z,12.32
2022-12-08T06:39:47.010Z,12.55
2022-12-08T06:44:48.538Z,18.52
2022-12-08T06:49:50.014Z,14.48
2022-12-08T06:54:51.478Z,14.38
2022-12-08T06:59:52.936Z,13.73
2022-12-08T07:04:54.383Z,13.30
2022-12-08T07:09:55.879Z,11.93
2022-12-08T07:14:57.335Z,13.63
2022-12-08T07:19:58.817Z,12.07
2022-12-08T07:25:00.294Z,12.70
2022-12-08T07:30:01.852Z,13.98
2022-12-08T07:35:04.227Z,13.73
2022-12-08T07:40:07.592Z,14.85
2022-12-08T07:45:09.732Z,15.68
2022-12-08T07:50:11.294Z,15.20
2022-12-08T07:55:12.742Z,12.80
2022-12-08T08:00:15.554Z,13.85
2022-12-08T08:05:17.040Z,17.02
2022-12-08T08:10:20.430Z,16.67
2022-12-08T08:15:22.020Z,15.07
2022-12-08T08:20:23.453Z,15.48
2022-12-08T08:25:24.910Z,15.50
2022-12-08T08:30:26.433Z,16.35
2022-12-08T08:35:27.961Z,15.95
2022-12-08T08:40:29.400Z,14.57
2022-12-08T08:45:31.410Z,14.88
2022-12-08T08:50:37.319Z,16.40
2022-12-08T08:55:39.691Z,13.68
2022-12-08T09:00:41.171Z,13.88
2022-12-08T09:05:42.751Z,13.57
2022-12-08T09:10:44.265Z,14.18
2022-12-08T09:15:45.839Z,13.77
2022-12-08T09:20:47.369Z,12.75
2022-12-08T09:25:48.840Z,13.38
2022-12-08T09:30:51.399Z,12.20
2022-12-08T09:35:52.921Z,11.30
2022-12-08T09:40:54.954Z,12.15
2022-12-08T09:45:56.932Z,12.65
2022-12-08T09:50:58.470Z,13.52
2022-12-08T09:56:19.022Z,11.68
2022-12-08T10:06:47.101Z,11.32
2022-12-08T10:11:55.738Z,12.68
2022-12-08T10:17:20.039Z,12.43
2022-12-08T10:22:24.500Z,12.82
2022-12-08T10:27:26.765Z,13.00
2022-12-08T10:32:34.827Z,10.70
2022-12-08T10:37:36.302Z,9.93
2022-12-08T10:42:41.804Z,11.35
2022-12-08T10:47:52.336Z,10.48
2022-12-08T10:53:08.611Z,10.10
2022-12-08T10:58:43.336Z,11.18
2022-12-08T11:03:51.570Z,11.02
2022-12-08T11:08:55.413Z,11.10
2022-12-08T11:13:56.869Z,10.35
2022-12-08T11:18:58.706Z,10.20
2022-12-08T11:24:18.628Z,9.80
2022-12-08T11:29:20.489Z,9.53
2022-12-08T11:34:40.750Z,8.80
2022-12-08T11:39:48.494Z,8.23
2022-12-08T11:45:04.025Z,8.35
2022-12-08T11:50:31.584Z,8.40
2022-12-08T11:55:49.679Z,8.05
2022-12-08T12:00:51.550Z,8.57
2022-12-08T12:06:37.649Z,6.68
2022-12-08T12:12:13.218Z,7.50
2022-12-08T12:17:32.451Z,6.97
2022-12-08T12:22:37.461Z,6.22
2022-12-08T12:27:40.337Z,6.53
2022-12-08T12:32:47.306Z,6.25
2022-12-08T12:37:48.945Z,5.95
2022-12-08T12:42:56.209Z,7.18
2022-12-08T12:48:00.444Z,6.28
2022-12-08T12:53:18.137Z,6.30
2022-12-08T12:58:30.204Z,8.98
2022-12-08T13:03:31.719Z,6.63
2022-12-08T13:08:33.742Z,4.68
2022-12-08T13:13:55.007Z,4.32
2022-12-08T13:18:59.026Z,5.22
2022-12-08T13:24:29.088Z,4.65
2022-12-08T13:29:39.994Z,5.03
2022-12-08T13:34:59.141Z,4.97
2022-12-08T13:40:00.572Z,5.88
2022-12-08T14:01:25.060Z,5.68
2022-12-08T14:06:36.210Z,5.25
2022-12-08T14:11:44.788Z,4.85
2022-12-08T14:16:53.598Z,4.18
2022-12-08T14:22:09.248Z,4.53
2022-12-08T14:27:15.228Z,3.55
2022-12-08T14:32:34.076Z,4.50
2022-12-08T14:37:44.529Z,4.82
2022-12-08T14:47:55.544Z,5.75
2022-12-08T14:52:57.033Z,5.30
2022-12-08T14:57:58.656Z,4.57
2022-12-08T15:03:06.605Z,4.97
2022-12-08T15:08:12.911Z,4.30
2022-12-08T15:13:16.311Z,4.00
2022-12-08T15:18:36.253Z,4.20
2022-12-08T15:23:44.809Z,3.37
2022-12-08T15:28:46.253Z,3.45
2022-12-08T15:33:48.142Z,4.03
2022-12-08T15:38:49.620Z,4.15
2022-12-08T15:43:51.046Z,4.25
2022-12-08T15:48:57.765Z,4.45
2022-12-08T15:53:59.612Z,4.68
2022-12-08T15:59:01.099Z,5.38
2022-12-08T16:09:33.283Z,5.45
2022-12-08T16:19:57.439Z,5.90
2022-12-08T16:25:14.709Z,6.45
2022-12-08T16:35:21.753Z,5.78
2022-12-08T16:40:23.350Z,7.43
2022-12-08T16:45:29.724Z,7.15
2022-12-08T16:50:33.721Z,7.57
2022-12-08T16:55:35.574Z,7.75
2022-12-08T17:00:37.529Z,12.40
2022-12-08T17:05:41.100Z,9.20
2022-12-08T17:10:42.677Z,9.52
2022-12-08T17:15:44.113Z,10.55
2022-12-08T17:20:45.544Z,17.25
2022-12-08T17:25:58.252Z,27.05
2022-12-08T17:31:00.366Z,15.30
2022-12-08T17:36:01.835Z,7.07
2022-12-08T17:41:05.110Z,6.30
2022-12-08T17:46:06.739Z,5.05
2022-12-08T17:51:09.586Z,5.40
2022-12-08T17:56:20.276Z,5.22
2022-12-08T18:01:23.038Z,4.18
2022-12-08T18:06:28.139Z,5.97
2022-12-08T18:11:33.893Z,6.15
2022-12-08T18:16:38.053Z,8.77
2022-12-08T18:21:40.615Z,9.52
2022-12-08T18:26:45.673Z,9.85
2022-12-08T18:31:47.319Z,6.13
2022-12-08T18:36:49.011Z,8.13
2022-12-08T18:41:51.471Z,8.27
2022-12-08T18:46:52.993Z,9.82
2022-12-08T18:51:54.454Z,8.65
2022-12-08T18:56:55.948Z,9.35
2022-12-08T19:01:57.869Z,11.85
2022-12-08T19:06:59.354Z,9.32
2022-12-08T19:12:00.794Z,9.45
2022-12-08T19:17:02.247Z,9.82
2022-12-08T19:22:03.781Z,7.90
2022-12-08T19:27:06.004Z,8.13
2022-12-08T19:32:07.424Z,6.53
2022-12-08T19:37:12.420Z,7.35
2022-12-08T19:42:34.279Z,7.47
2022-12-08T19:47:35.794Z,6.07
2022-12-08T19:52:37.288Z,7.03
2022-12-08T19:57:38.826Z,10.77
2022-12-08T20:02:40.551Z,11.48
2022-12-08T20:07:42.813Z,15.48
2022-12-08T20:12:44.523Z,22.90
2022-12-08T20:17:45.936Z,14.43
2022-12-08T20:22:49.801Z,8.15
2022-12-08T20:27:51.368Z,10.48
2022-12-08T20:32:52.836Z,13.77
2022-12-08T20:37:54.374Z,14.20
2022-12-08T20:42:55.822Z,11.45
2022-12-08T20:47:57.284Z,9.80
2022-12-08T20:52:59.059Z,11.48
2022-12-08T20:58:00.804Z,14.27
2022-12-08T21:03:02.349Z,13.23
2022-12-08T21:08:04.256Z,8.88
2022-12-08T21:13:07.304Z,11.55
2022-12-08T21:18:08.950Z,10.80
2022-12-08T21:23:10.742Z,11.25
2022-12-08T21:28:12.761Z,11.88
2022-12-08T21:33:14.569Z,10.60
2022-12-08T21:38:16.465Z,13.05
2022-12-08T21:43:18.074Z,10.00
2022-12-08T21:48:19.646Z,9.45
2022-12-08T21:53:22.777Z,9.55
2022-12-08T21:58:24.452Z,8.52
2022-12-08T22:03:26.773Z,8.25
2022-12-08T22:08:28.652Z,9.45
2022-12-08T22:13:30.644Z,6.97
2022-12-08T22:18:33.409Z,7.57
2022-12-08T22:23:35.086Z,7.57
2022-12-08T22:28:40.777Z,12.60
2022-12-08T22:33:43.004Z,8.40
2022-12-08T22:38:44.825Z,7.93
2022-12-08T22:43:47.468Z,7.10
2022-12-08T22:48:50.141Z,9.77
2022-12-08T22:53:51.727Z,8.40
2022-12-08T22:58:53.322Z,7.00
2022-12-08T23:03:55.176Z,7.05
2022-12-08T23:08:58.100Z,6.22
2022-12-08T23:14:00.542Z,5.85
2022-12-08T23:19:02.274Z,5.72
2022-12-08T23:24:04.515Z,6.20
2022-12-08T23:29:06.242Z,7.07
2022-12-08T23:34:07.708Z,5.82
2022-12-08T23:39:10.781Z,5.97
2022-12-08T23:44:12.449Z,6.90
2022-12-08T23:49:14.740Z,6.88
2022-12-08T23:54:16.983Z,6.03
2022-12-08T23:59:18.727Z,4.68
